新千歳(RJCC)でタッチ&ゴー!

LUXURY FLIGHT

03-6423-7371

羽田本店:東京都大田区羽田5-11-1
営業時間:10:00~20:00
定休日:年中無休

セントレア店:愛知県常滑市セントレア1-1
営業時間:10:00~20:00
定休日:年中無休

lv

新千歳(RJCC)でタッチ&ゴー!

STAFF BLOG

2020/02/11 新千歳(RJCC)でタッチ&ゴー!

こんにちはーーーーー

 

羽田周辺の本日のMETARは…

RJTT 110430Z 35009KT 9999 FEW030 10/M05 Q1025 NOSIG RMK 1CU030 A3028

 

日差しがとても気持ちよくて、ポカポカしますが、

日陰はなかなか冷え込む感じです。

 

 

本日は常連のキッズキャプテン

 

来店される度にメキメキと力をつけてくれて

特にタッチ&ゴーに関しては、大人同様に2NM(2ノーティカルマイル)の幅でクルクル回り、

FDにも頼らずに自分で計器を見ながら飛行できる超人ぶり。

 

間違いなく私より上手です。笑

 

今度教えてもらわなきゃ

 

 

img_4852

 

 

グローブがタプタプなのは、私のグローブを使っていただいているからです。笑

 

本物志向のキッズキャプテンはグローブも自ら進んで着用してくれました。

 

「緊張した自分の手汗で次のお客様に迷惑を掛けたくない!」

との想いからかもしれません。

 

サイズが丁度良いの無くてゴメンねっ

 

 

 

img_4853

 

 

飛行機に限らず、電車やバスの運転手さんが来店されると、

自前のグローブを着用した際に

 

「おぅ!!やったるぜぃ!!」

 

というキリッと引き締まる表情になる方が多いのですが、

 

キッズにも例外なく適用される事が判明しました。笑

 

こち亀に出てくる白バイの本◯君までの豹変はないものの、

する前とした後では、気合の入った表情に!!!!

 

 

 

 

 

 

…なった気がしました。

きっとお母さんも同じことを感じてもらえたのではないかと…笑

 

 

次回、お子様用のグローブが手に入ったら、確保しておきます!

また頑張ってマニュアルでフライトしましょう!!!

 

この度はご来店誠にありがとうございました。

いつも本当にありがとうございます。

 

「感謝」

 

 

 

 

 

 

 

TOP